CAS9311 KDCA-KJAX
Flight info
| Callsign | CAS9311 |
|---|---|
| Flight time | N/A |
| Altitude | 38000 |
| Route | AMEEE1 SCOOB GUILD Q409 SESUE ESENT LUNNI2 |
| Aircraft | B736/M-SDE2E3FGHIRWXY/LB1 |
Departure
| Time | 2026-05-05 19:50 |
|---|---|
| Airport | Ronald Reagan Washington National Airport (KDCA) |
Arrival
| Time | N/A |
|---|---|
| Airport | Jacksonville International Airport (KJAX) |
| Time | Latitude | Longitude | Altitude | Speed | Heading |
|---|---|---|---|---|---|
| 2026-05-05 19:22 | 38.84733 | -77.04295 | 22 ft | 0 kts | 169° |
| 2026-05-05 19:38 | 38.84734 | -77.04295 | 22 ft | 0 kts | 170° |
| 2026-05-05 19:38 | 38.84744 | -77.04300 | 22 ft | 2 kts | 142° |
| 2026-05-05 19:38 | 38.84757 | -77.04311 | 23 ft | 2 kts | 152° |
| 2026-05-05 19:38 | 38.84769 | -77.04320 | 23 ft | 1 kts | 149° |
| 2026-05-05 19:39 | 38.84775 | -77.04325 | 23 ft | 0 kts | 173° |
| 2026-05-05 19:39 | 38.84780 | -77.04324 | 23 ft | 0 kts | 225° |
| 2026-05-05 19:39 | 38.84782 | -77.04321 | 23 ft | 0 kts | 225° |
| 2026-05-05 19:41 | 38.84766 | -77.04340 | 23 ft | 4 kts | 221° |
| 2026-05-05 19:42 | 38.84739 | -77.04364 | 22 ft | 5 kts | 211° |
| 2026-05-05 19:42 | 38.84701 | -77.04390 | 22 ft | 7 kts | 205° |
| 2026-05-05 19:42 | 38.84647 | -77.04402 | 21 ft | 9 kts | 170° |
| 2026-05-05 19:42 | 38.84589 | -77.04358 | 20 ft | 10 kts | 135° |
| 2026-05-05 19:43 | 38.84544 | -77.04283 | 19 ft | 10 kts | 114° |
| 2026-05-05 19:43 | 38.84532 | -77.04190 | 19 ft | 10 kts | 91° |
| 2026-05-05 19:43 | 38.84542 | -77.04106 | 19 ft | 9 kts | 67° |
| 2026-05-05 19:43 | 38.84595 | -77.04060 | 19 ft | 10 kts | 26° |
| 2026-05-05 19:44 | 38.84665 | -77.04016 | 19 ft | 11 kts | 26° |
| 2026-05-05 19:44 | 38.84734 | -77.03974 | 20 ft | 9 kts | 24° |
| 2026-05-05 19:44 | 38.84798 | -77.03949 | 21 ft | 10 kts | 8° |
| 2026-05-05 19:44 | 38.84872 | -77.03922 | 20 ft | 11 kts | 31° |
| 2026-05-05 19:45 | 38.84953 | -77.03897 | 20 ft | 12 kts | 358° |
| 2026-05-05 19:45 | 38.85046 | -77.03905 | 20 ft | 13 kts | 356° |
| 2026-05-05 19:45 | 38.85140 | -77.03915 | 20 ft | 13 kts | 355° |
| 2026-05-05 19:45 | 38.85233 | -77.03925 | 20 ft | 14 kts | 355° |
| 2026-05-05 19:46 | 38.85333 | -77.03936 | 21 ft | 14 kts | 355° |
| 2026-05-05 19:46 | 38.85436 | -77.03947 | 21 ft | 14 kts | 356° |
| 2026-05-05 19:46 | 38.85529 | -77.03954 | 20 ft | 12 kts | 355° |
| 2026-05-05 19:46 | 38.85606 | -77.03962 | 19 ft | 3 kts | 356° |
| 2026-05-05 19:47 | 38.85607 | -77.03962 | 19 ft | 0 kts | 356° |
| 2026-05-05 19:47 | 38.85608 | -77.03962 | 19 ft | 1 kts | 356° |
| 2026-05-05 19:47 | 38.85656 | -77.03966 | 19 ft | 10 kts | 355° |
| 2026-05-05 19:48 | 38.85737 | -77.03975 | 19 ft | 13 kts | 355° |
| 2026-05-05 19:48 | 38.85840 | -77.03985 | 18 ft | 14 kts | 356° |
| 2026-05-05 19:48 | 38.85928 | -77.03983 | 16 ft | 10 kts | 11° |
| 2026-05-05 19:48 | 38.85987 | -77.03962 | 15 ft | 6 kts | 17° |
| 2026-05-05 19:49 | 38.86036 | -77.03942 | 15 ft | 9 kts | 18° |
| 2026-05-05 19:49 | 38.86074 | -77.03879 | 14 ft | 9 kts | 116° |
| 2026-05-05 19:49 | 38.85963 | -77.03856 | 15 ft | 40 kts | 176° |
| 2026-05-05 19:49 | 38.85434 | -77.03804 | 19 ft | 109 kts | 175° |
| 2026-05-05 19:50 | 38.84495 | -77.03723 | 138 ft | 151 kts | 178° |
| 2026-05-05 19:50 | 38.83455 | -77.03639 | 708 ft | 154 kts | 175° |
| 2026-05-05 19:50 | 38.82368 | -77.03422 | 1300 ft | 164 kts | 171° |
| 2026-05-05 19:50 | 38.81189 | -77.03127 | 1715 ft | 186 kts | 171° |
| 2026-05-05 19:51 | 38.79816 | -77.02813 | 2026 ft | 213 kts | 171° |
| 2026-05-05 19:51 | 38.78275 | -77.02479 | 2469 ft | 236 kts | 171° |
| 2026-05-05 19:51 | 38.76669 | -77.02131 | 3397 ft | 238 kts | 170° |
| 2026-05-05 19:51 | 38.75098 | -77.01527 | 4298 ft | 242 kts | 155° |
| 2026-05-05 19:52 | 38.73598 | -77.00427 | 4887 ft | 260 kts | 148° |
| 2026-05-05 19:52 | 38.72093 | -76.99105 | 5645 ft | 268 kts | 146° |
| 2026-05-05 19:52 | 38.70549 | -76.97708 | 6504 ft | 273 kts | 146° |
| 2026-05-05 19:52 | 38.68996 | -76.96313 | 7348 ft | 277 kts | 146° |
| 2026-05-05 19:53 | 38.67435 | -76.94923 | 8169 ft | 280 kts | 147° |
| 2026-05-05 19:53 | 38.65831 | -76.93462 | 8964 ft | 284 kts | 149° |
| 2026-05-05 19:53 | 38.64219 | -76.91989 | 9608 ft | 293 kts | 151° |
| 2026-05-05 19:53 | 38.62525 | -76.90524 | 10295 ft | 299 kts | 152° |
| 2026-05-05 19:54 | 38.60733 | -76.88985 | 10502 ft | 324 kts | 152° |
| 2026-05-05 19:54 | 38.58782 | -76.87292 | 10671 ft | 349 kts | 151° |
| 2026-05-05 19:54 | 38.56770 | -76.85526 | 11263 ft | 358 kts | 151° |
| 2026-05-05 19:54 | 38.54696 | -76.83695 | 11938 ft | 364 kts | 151° |
| 2026-05-05 19:55 | 38.52623 | -76.81841 | 12615 ft | 369 kts | 151° |
| 2026-05-05 19:55 | 38.50531 | -76.79967 | 13290 ft | 374 kts | 150° |
| 2026-05-05 19:55 | 38.48391 | -76.78052 | 13948 ft | 378 kts | 150° |
| 2026-05-05 19:55 | 38.46240 | -76.76128 | 14593 ft | 383 kts | 150° |
| 2026-05-05 19:56 | 38.44044 | -76.74205 | 15204 ft | 387 kts | 152° |
| 2026-05-05 19:56 | 38.41691 | -76.72544 | 15817 ft | 387 kts | 160° |
| 2026-05-05 19:56 | 38.39186 | -76.71356 | 16415 ft | 386 kts | 170° |
| 2026-05-05 19:56 | 38.36570 | -76.70693 | 16988 ft | 387 kts | 176° |
| 2026-05-05 19:57 | 38.33903 | -76.70424 | 17514 ft | 385 kts | 189° |
| 2026-05-05 19:57 | 38.31294 | -76.71007 | 18110 ft | 383 kts | 198° |
| 2026-05-05 19:57 | 38.28711 | -76.71864 | 18708 ft | 386 kts | 199° |
| 2026-05-05 19:57 | 38.26088 | -76.72720 | 19259 ft | 392 kts | 198° |
| 2026-05-05 19:58 | 38.23423 | -76.73524 | 19824 ft | 396 kts | 197° |
| 2026-05-05 19:58 | 38.20762 | -76.74296 | 20364 ft | 401 kts | 197° |
| 2026-05-05 19:58 | 38.18041 | -76.75069 | 20903 ft | 405 kts | 197° |
| 2026-05-05 19:58 | 38.15290 | -76.75841 | 21424 ft | 409 kts | 196° |
| 2026-05-05 19:59 | 38.12497 | -76.76617 | 21936 ft | 413 kts | 196° |
| 2026-05-05 19:59 | 38.09677 | -76.77398 | 22435 ft | 417 kts | 196° |
| 2026-05-05 19:59 | 38.06831 | -76.78182 | 22939 ft | 421 kts | 196° |
| 2026-05-05 19:59 | 38.03968 | -76.78968 | 23413 ft | 425 kts | 195° |
| 2026-05-05 20:00 | 38.01075 | -76.79761 | 23890 ft | 429 kts | 195° |
| 2026-05-05 20:00 | 37.98176 | -76.80554 | 24320 ft | 434 kts | 195° |
| 2026-05-05 20:00 | 37.95222 | -76.81361 | 24771 ft | 438 kts | 195° |
| 2026-05-05 20:00 | 37.92228 | -76.82177 | 25230 ft | 441 kts | 195° |
| 2026-05-05 20:01 | 37.89255 | -76.82986 | 25691 ft | 444 kts | 195° |
| 2026-05-05 20:01 | 37.86199 | -76.83817 | 26096 ft | 449 kts | 195° |
| 2026-05-05 20:01 | 37.83162 | -76.84643 | 26524 ft | 452 kts | 195° |
| 2026-05-05 20:01 | 37.80085 | -76.85477 | 26899 ft | 456 kts | 195° |
| 2026-05-05 20:02 | 37.76983 | -76.86319 | 27300 ft | 459 kts | 195° |
| 2026-05-05 20:02 | 37.73857 | -76.87166 | 27670 ft | 463 kts | 195° |
| 2026-05-05 20:02 | 37.70723 | -76.88014 | 28032 ft | 466 kts | 195° |
| 2026-05-05 20:02 | 37.67574 | -76.88866 | 28388 ft | 469 kts | 195° |
| 2026-05-05 20:03 | 37.64381 | -76.89728 | 28784 ft | 471 kts | 195° |
| 2026-05-05 20:03 | 37.61178 | -76.90592 | 29228 ft | 471 kts | 195° |
| 2026-05-05 20:03 | 37.57999 | -76.91449 | 29674 ft | 471 kts | 195° |
| 2026-05-05 20:03 | 37.54807 | -76.92309 | 30097 ft | 472 kts | 195° |
| 2026-05-05 20:04 | 37.51574 | -76.93179 | 30459 ft | 474 kts | 195° |
| 2026-05-05 20:04 | 37.48361 | -76.94043 | 30831 ft | 474 kts | 196° |
| 2026-05-05 20:04 | 37.45146 | -76.94907 | 31180 ft | 476 kts | 196° |
| 2026-05-05 20:04 | 37.41930 | -76.95770 | 31489 ft | 478 kts | 196° |
| 2026-05-05 20:05 | 37.38669 | -76.96645 | 31811 ft | 479 kts | 197° |
| 2026-05-05 20:05 | 37.35450 | -76.97508 | 32128 ft | 481 kts | 197° |
| 2026-05-05 20:05 | 37.32155 | -76.98390 | 32465 ft | 482 kts | 197° |
| 2026-05-05 20:05 | 37.28886 | -76.99265 | 32727 ft | 484 kts | 197° |
| 2026-05-05 20:06 | 37.25638 | -77.00133 | 33048 ft | 485 kts | 198° |
| 2026-05-05 20:06 | 37.22316 | -77.01021 | 33329 ft | 487 kts | 198° |
| 2026-05-05 20:06 | 37.19027 | -77.01898 | 33608 ft | 488 kts | 198° |
| 2026-05-05 20:06 | 37.15702 | -77.02784 | 33895 ft | 489 kts | 198° |
| 2026-05-05 20:07 | 37.12413 | -77.03660 | 34178 ft | 490 kts | 198° |
| 2026-05-05 20:07 | 37.09084 | -77.04545 | 34554 ft | 489 kts | 198° |
| 2026-05-05 20:07 | 37.05761 | -77.05427 | 34938 ft | 487 kts | 198° |
| 2026-05-05 20:07 | 37.02468 | -77.06300 | 35269 ft | 486 kts | 198° |
| 2026-05-05 20:08 | 36.99159 | -77.07179 | 35612 ft | 484 kts | 198° |
| 2026-05-05 20:08 | 36.95920 | -77.08036 | 35974 ft | 482 kts | 198° |
| 2026-05-05 20:08 | 36.92631 | -77.08907 | 36267 ft | 481 kts | 198° |
| 2026-05-05 20:08 | 36.89402 | -77.09762 | 36553 ft | 480 kts | 198° |
| 2026-05-05 20:09 | 36.86134 | -77.10626 | 36792 ft | 480 kts | 198° |
| 2026-05-05 20:09 | 36.82866 | -77.11490 | 37034 ft | 479 kts | 198° |
| 2026-05-05 20:09 | 36.79655 | -77.12337 | 37255 ft | 479 kts | 198° |
| 2026-05-05 20:09 | 36.76363 | -77.13206 | 37460 ft | 479 kts | 198° |
| 2026-05-05 20:10 | 36.73124 | -77.14059 | 37681 ft | 478 kts | 198° |
| 2026-05-05 20:10 | 36.69893 | -77.14910 | 37879 ft | 477 kts | 198° |
| 2026-05-05 20:10 | 36.66660 | -77.15761 | 38020 ft | 477 kts | 198° |
| 2026-05-05 20:11 | 36.60165 | -77.17469 | 38035 ft | 481 kts | 197° |
| 2026-05-05 20:11 | 36.53592 | -77.19193 | 38037 ft | 485 kts | 197° |
| 2026-05-05 20:12 | 36.47004 | -77.20919 | 38039 ft | 489 kts | 197° |
| 2026-05-05 20:12 | 36.40338 | -77.22661 | 38041 ft | 492 kts | 197° |
| 2026-05-05 20:13 | 36.33764 | -77.24741 | 38042 ft | 486 kts | 206° |
| 2026-05-05 20:13 | 36.27908 | -77.28481 | 38049 ft | 471 kts | 223° |
| 2026-05-05 20:14 | 36.22712 | -77.33412 | 38045 ft | 471 kts | 226° |
| 2026-05-05 20:14 | 36.17595 | -77.38402 | 38046 ft | 472 kts | 226° |
| 2026-05-05 20:15 | 36.12452 | -77.43403 | 38047 ft | 472 kts | 226° |
| 2026-05-05 20:15 | 36.07282 | -77.48418 | 38050 ft | 473 kts | 226° |
| 2026-05-05 20:16 | 36.02129 | -77.53407 | 38052 ft | 474 kts | 226° |
| 2026-05-05 20:16 | 35.96954 | -77.58407 | 38054 ft | 476 kts | 226° |
| 2026-05-05 20:17 | 35.91727 | -77.63446 | 38054 ft | 477 kts | 226° |
| 2026-05-05 20:17 | 35.86542 | -77.68439 | 38056 ft | 476 kts | 225° |
| 2026-05-05 20:18 | 35.81325 | -77.73455 | 38057 ft | 477 kts | 225° |
| 2026-05-05 20:18 | 35.76129 | -77.78440 | 38057 ft | 477 kts | 225° |
| 2026-05-05 20:19 | 35.70883 | -77.83466 | 38058 ft | 477 kts | 225° |
| 2026-05-05 20:19 | 35.65699 | -77.88422 | 38064 ft | 477 kts | 225° |
| 2026-05-05 20:20 | 35.60460 | -77.93421 | 38069 ft | 477 kts | 225° |
| 2026-05-05 20:20 | 35.55233 | -77.98402 | 38071 ft | 476 kts | 226° |
| 2026-05-05 20:21 | 35.50037 | -78.03343 | 38071 ft | 476 kts | 226° |
| 2026-05-05 20:21 | 35.44826 | -78.08292 | 38072 ft | 475 kts | 226° |
| 2026-05-05 20:22 | 35.39611 | -78.13236 | 38072 ft | 475 kts | 226° |
| 2026-05-05 20:22 | 35.34384 | -78.18182 | 38068 ft | 475 kts | 226° |
| 2026-05-05 20:23 | 35.29207 | -78.23071 | 38071 ft | 474 kts | 226° |
| 2026-05-05 20:23 | 35.23972 | -78.28009 | 38072 ft | 474 kts | 226° |
| 2026-05-05 20:24 | 35.18804 | -78.32877 | 38067 ft | 474 kts | 226° |
| 2026-05-05 20:24 | 35.13570 | -78.37798 | 38068 ft | 473 kts | 226° |
| 2026-05-05 20:25 | 35.08393 | -78.42657 | 38071 ft | 473 kts | 226° |
| 2026-05-05 20:25 | 35.03171 | -78.47551 | 38071 ft | 474 kts | 226° |
| 2026-05-05 20:26 | 34.97974 | -78.52414 | 38067 ft | 474 kts | 226° |
| 2026-05-05 20:26 | 34.92755 | -78.57288 | 38071 ft | 474 kts | 226° |
| 2026-05-05 20:27 | 34.87542 | -78.62148 | 38068 ft | 473 kts | 226° |
| 2026-05-05 20:27 | 34.82344 | -78.66989 | 38068 ft | 473 kts | 226° |
| 2026-05-05 20:28 | 34.77125 | -78.71845 | 38070 ft | 473 kts | 226° |
| 2026-05-05 20:28 | 34.71918 | -78.76678 | 38071 ft | 473 kts | 226° |
| 2026-05-05 20:29 | 34.66696 | -78.81517 | 38071 ft | 474 kts | 226° |
| 2026-05-05 20:29 | 34.61478 | -78.86344 | 38069 ft | 474 kts | 226° |
| 2026-05-05 20:30 | 34.56243 | -78.91177 | 38072 ft | 472 kts | 226° |
| 2026-05-05 20:30 | 34.51034 | -78.95980 | 38071 ft | 472 kts | 226° |
| 2026-05-05 20:31 | 34.45829 | -79.00762 | 38072 ft | 473 kts | 226° |
| 2026-05-05 20:31 | 34.40544 | -79.05488 | 38074 ft | 475 kts | 224° |
| 2026-05-05 20:32 | 34.35159 | -79.10086 | 38074 ft | 475 kts | 224° |